Terminal Aerodrome Forecast
Issued by NWS Amarillo, TX

Home | Current Version | Previous Version | Text Only | Print | Product List | Glossary On
Versions: 1 2 3 4 5 6 7 8 9 10 11 12 13 14 15 16 17 18 19 20
000
FTUS44 KAMA 280200 AAA
TAFAMA
TAF AMD
KAMA 280222Z 2802/2824 14012KT 6SM -SN SCT010 OVC035
     FM280800 16014KT 3SM -SN OVC008
     FM281400 18015KT P6SM OVC012=

USA.gov is the U.S. government's official web portal to all federal, state and local government web resources and services.